Terminal Aerodrome Forecast
Issued by NWS Blacksburg, VA

Home | Current Version | Previous Version | Text Only | Print | Product List | Glossary On
Versions: 1 2 3 4 5 6 7 8 9 10 11 12 13 14 15
000
FTUS41 KRNK 152320
TAFBLF
TAF
KBLF 152320Z 1600/1624 30017G26KT P6SM OVC023
     FM160800 28011KT P6SM BKN030
     FM161300 28011KT P6SM BKN035
     FM162000 24006KT P6SM SKC=

USA.gov is the U.S. government's official web portal to all federal, state and local government web resources and services.